Terminal Aerodrome Forecast
Issued by NWS Cleveland, OH

Home | Current Version | Previous Version | Text Only | Print | Product List | Glossary On
Versions: 1 2 3 4 5 6 7 8 9 10 11 12 13 14 15 16 17 18 19 20
000
FTUS41 KCLE 272300
TAFMFD
TAF
KMFD 272340Z 2800/2824 21012KT 6SM -SHRA SCT006 OVC015
     FM280300 24012KT 4SM -SHRA BKN006 OVC015
      TEMPO 2803/2805 6SM -SHRA
     FM280800 30008KT 6SM -SHRA OVC006
     FM281400 31008KT P6SM OVC015
     FM281700 31008KT P6SM OVC025=

USA.gov is the U.S. government's official web portal to all federal, state and local government web resources and services.